sensor_id;sensor_type;location;lat;lon;timestamp;temperature;humidity
67820;DHT22;54618;52.018;5.576;2023-01-19T00:01:53;16.90;48.00
67820;DHT22;54618;52.018;5.576;2023-01-19T00:04:19;16.90;48.10
67820;DHT22;54618;52.018;5.576;2023-01-19T00:06:45;16.90;48.10
67820;DHT22;54618;52.018;5.576;2023-01-19T00:09:10;16.90;48.10
67820;DHT22;54618;52.018;5.576;2023-01-19T00:11:36;16.80;48.10
67820;DHT22;54618;52.018;5.576;2023-01-19T00:14:01;16.90;48.20
67820;DHT22;54618;52.018;5.576;2023-01-19T00:16:27;16.80;48.20
67820;DHT22;54618;52.018;5.576;2023-01-19T00:18:53;16.80;48.20
67820;DHT22;54618;52.018;5.576;2023-01-19T00:21:19;16.80;48.20
67820;DHT22;54618;52.018;5.576;2023-01-19T00:23:46;16.80;48.20
67820;DHT22;54618;52.018;5.576;2023-01-19T00:26:15;16.80;48.20
67820;DHT22;54618;52.018;5.576;2023-01-19T00:28:44;16.80;48.30
67820;DHT22;54618;52.018;5.576;2023-01-19T00:31:10;16.80;48.30
67820;DHT22;54618;52.018;5.576;2023-01-19T00:33:36;16.80;48.20
67820;DHT22;54618;52.018;5.576;2023-01-19T00:36:02;16.80;48.20
67820;DHT22;54618;52.018;5.576;2023-01-19T00:38:28;16.80;48.20
67820;DHT22;54618;52.018;5.576;2023-01-19T00:40:53;16.80;48.20
67820;DHT22;54618;52.018;5.576;2023-01-19T00:43:19;16.80;48.30
67820;DHT22;54618;52.018;5.576;2023-01-19T00:45:45;16.80;48.40
67820;DHT22;54618;52.018;5.576;2023-01-19T00:48:10;16.80;48.40
67820;DHT22;54618;52.018;5.576;2023-01-19T00:50:36;16.80;48.50
67820;DHT22;54618;52.018;5.576;2023-01-19T00:53:01;16.80;48.60
67820;DHT22;54618;52.018;5.576;2023-01-19T00:55:28;16.70;48.50
67820;DHT22;54618;52.018;5.576;2023-01-19T00:57:54;16.70;48.60
67820;DHT22;54618;52.018;5.576;2023-01-19T01:00:20;16.70;48.70
67820;DHT22;54618;52.018;5.576;2023-01-19T01:02:47;16.70;48.70
67820;DHT22;54618;52.018;5.576;2023-01-19T01:05:13;16.70;48.80
67820;DHT22;54618;52.018;5.576;2023-01-19T01:07:40;16.60;48.70
67820;DHT22;54618;52.018;5.576;2023-01-19T01:10:18;16.60;48.70
67820;DHT22;54618;52.018;5.576;2023-01-19T01:12:44;16.60;48.80
67820;DHT22;54618;52.018;5.576;2023-01-19T01:15:11;16.60;48.80
67820;DHT22;54618;52.018;5.576;2023-01-19T01:17:37;16.60;48.80
67820;DHT22;54618;52.018;5.576;2023-01-19T01:20:12;16.60;48.80
67820;DHT22;54618;52.018;5.576;2023-01-19T01:22:46;16.50;48.80
67820;DHT22;54618;52.018;5.576;2023-01-19T01:25:16;16.50;48.80
67820;DHT22;54618;52.018;5.576;2023-01-19T01:27:42;16.50;48.90
67820;DHT22;54618;52.018;5.576;2023-01-19T01:30:10;16.50;48.90
67820;DHT22;54618;52.018;5.576;2023-01-19T01:32:36;16.50;49.00
67820;DHT22;54618;52.018;5.576;2023-01-19T01:35:02;16.50;48.90
67820;DHT22;54618;52.018;5.576;2023-01-19T01:37:28;16.50;49.00
67820;DHT22;54618;52.018;5.576;2023-01-19T01:39:54;16.40;49.00
67820;DHT22;54618;52.018;5.576;2023-01-19T01:42:28;16.40;49.30
67820;DHT22;54618;52.018;5.576;2023-01-19T01:44:59;16.40;49.10
67820;DHT22;54618;52.018;5.576;2023-01-19T01:50:05;16.40;49.00
67820;DHT22;54618;52.018;5.576;2023-01-19T01:52:36;16.40;49.10
67820;DHT22;54618;52.018;5.576;2023-01-19T01:55:04;16.40;49.10
67820;DHT22;54618;52.018;5.576;2023-01-19T01:57:36;16.40;49.10
67820;DHT22;54618;52.018;5.576;2023-01-19T02:00:04;16.30;49.00
67820;DHT22;54618;52.018;5.576;2023-01-19T02:02:31;16.30;49.10
67820;DHT22;54618;52.018;5.576;2023-01-19T02:05:32;16.30;49.10
67820;DHT22;54618;52.018;5.576;2023-01-19T02:10:50;16.30;49.10
67820;DHT22;54618;52.018;5.576;2023-01-19T02:13:37;16.30;49.20
67820;DHT22;54618;52.018;5.576;2023-01-19T02:16:08;16.20;49.10
67820;DHT22;54618;52.018;5.576;2023-01-19T02:18:34;16.20;49.10
67820;DHT22;54618;52.018;5.576;2023-01-19T02:21:34;16.20;49.20
67820;DHT22;54618;52.018;5.576;2023-01-19T02:24:01;16.20;49.50
67820;DHT22;54618;52.018;5.576;2023-01-19T02:26:34;16.20;49.20
67820;DHT22;54618;52.018;5.576;2023-01-19T02:29:08;16.20;49.20
67820;DHT22;54618;52.018;5.576;2023-01-19T02:31:35;16.30;49.50
67820;DHT22;54618;52.018;5.576;2023-01-19T02:34:03;16.50;49.70
67820;DHT22;54618;52.018;5.576;2023-01-19T02:39:02;16.80;50.00
67820;DHT22;54618;52.018;5.576;2023-01-19T02:41:33;16.90;50.10
67820;DHT22;54618;52.018;5.576;2023-01-19T02:44:02;16.90;50.10
67820;DHT22;54618;52.018;5.576;2023-01-19T02:46:29;17.00;50.20
67820;DHT22;54618;52.018;5.576;2023-01-19T02:48:58;17.00;50.10
67820;DHT22;54618;52.018;5.576;2023-01-19T02:51:24;17.00;50.10
67820;DHT22;54618;52.018;5.576;2023-01-19T02:59:41;17.10;49.90
67820;DHT22;54618;52.018;5.576;2023-01-19T03:05:05;17.00;49.50
67820;DHT22;54618;52.018;5.576;2023-01-19T03:07:55;17.00;49.70
67820;DHT22;54618;52.018;5.576;2023-01-19T03:10:39;17.20;49.40
67820;DHT22;54618;52.018;5.576;2023-01-19T03:13:10;17.60;48.60
67820;DHT22;54618;52.018;5.576;2023-01-19T03:15:47;18.00;48.10
67820;DHT22;54618;52.018;5.576;2023-01-19T03:18:18;18.20;47.40
67820;DHT22;54618;52.018;5.576;2023-01-19T03:20:46;18.40;47.00
67820;DHT22;54618;52.018;5.576;2023-01-19T03:23:13;18.50;46.80
67820;DHT22;54618;52.018;5.576;2023-01-19T03:25:42;18.70;46.60
67820;DHT22;54618;52.018;5.576;2023-01-19T03:28:10;18.70;46.40
67820;DHT22;54618;52.018;5.576;2023-01-19T03:30:41;18.70;46.30
67820;DHT22;54618;52.018;5.576;2023-01-19T03:33:20;18.70;46.30
67820;DHT22;54618;52.018;5.576;2023-01-19T03:35:49;18.60;46.40
67820;DHT22;54618;52.018;5.576;2023-01-19T03:38:23;18.50;46.40
67820;DHT22;54618;52.018;5.576;2023-01-19T03:40:52;18.50;46.40
67820;DHT22;54618;52.018;5.576;2023-01-19T03:43:21;18.40;46.50
67820;DHT22;54618;52.018;5.576;2023-01-19T03:45:47;18.40;46.40
67820;DHT22;54618;52.018;5.576;2023-01-19T03:48:14;18.40;46.50
67820;DHT22;54618;52.018;5.576;2023-01-19T03:50:40;18.40;46.50
67820;DHT22;54618;52.018;5.576;2023-01-19T03:53:11;18.30;46.40
67820;DHT22;54618;52.018;5.576;2023-01-19T03:55:39;18.30;46.40
67820;DHT22;54618;52.018;5.576;2023-01-19T03:58:06;18.30;46.40
67820;DHT22;54618;52.018;5.576;2023-01-19T04:00:32;18.30;46.40
67820;DHT22;54618;52.018;5.576;2023-01-19T04:02:58;18.30;46.40
67820;DHT22;54618;52.018;5.576;2023-01-19T04:05:24;18.30;46.30
67820;DHT22;54618;52.018;5.576;2023-01-19T04:07:51;18.30;46.40
67820;DHT22;54618;52.018;5.576;2023-01-19T04:10:17;18.30;46.40
67820;DHT22;54618;52.018;5.576;2023-01-19T04:12:43;18.20;46.60
67820;DHT22;54618;52.018;5.576;2023-01-19T04:15:09;18.20;46.90
67820;DHT22;54618;52.018;5.576;2023-01-19T04:17:36;18.20;46.30
67820;DHT22;54618;52.018;5.576;2023-01-19T04:20:02;18.20;46.20
67820;DHT22;54618;52.018;5.576;2023-01-19T04:22:28;18.20;46.20
67820;DHT22;54618;52.018;5.576;2023-01-19T04:24:53;18.20;46.20
67820;DHT22;54618;52.018;5.576;2023-01-19T04:27:19;18.20;46.20
67820;DHT22;54618;52.018;5.576;2023-01-19T04:29:45;18.20;46.30
67820;DHT22;54618;52.018;5.576;2023-01-19T04:32:12;18.10;46.80
67820;DHT22;54618;52.018;5.576;2023-01-19T04:34:38;18.20;46.20
67820;DHT22;54618;52.018;5.576;2023-01-19T04:37:03;18.20;46.10
67820;DHT22;54618;52.018;5.576;2023-01-19T04:39:29;18.20;46.10
67820;DHT22;54618;52.018;5.576;2023-01-19T04:41:54;18.20;46.10
67820;DHT22;54618;52.018;5.576;2023-01-19T04:44:22;18.20;46.20
67820;DHT22;54618;52.018;5.576;2023-01-19T04:46:48;18.20;46.10
67820;DHT22;54618;52.018;5.576;2023-01-19T04:49:13;18.20;46.10
67820;DHT22;54618;52.018;5.576;2023-01-19T04:51:39;18.20;46.10
67820;DHT22;54618;52.018;5.576;2023-01-19T04:54:05;18.20;46.10
67820;DHT22;54618;52.018;5.576;2023-01-19T04:56:33;18.20;46.00
67820;DHT22;54618;52.018;5.576;2023-01-19T04:58:58;18.20;46.10
67820;DHT22;54618;52.018;5.576;2023-01-19T05:01:24;18.10;46.00
67820;DHT22;54618;52.018;5.576;2023-01-19T05:03:50;18.20;46.00
67820;DHT22;54618;52.018;5.576;2023-01-19T05:06:15;18.20;46.10
67820;DHT22;54618;52.018;5.576;2023-01-19T05:08:41;18.10;46.00
67820;DHT22;54618;52.018;5.576;2023-01-19T05:11:06;18.10;46.00
67820;DHT22;54618;52.018;5.576;2023-01-19T05:13:32;18.10;46.00
67820;DHT22;54618;52.018;5.576;2023-01-19T05:15:57;18.10;46.00
67820;DHT22;54618;52.018;5.576;2023-01-19T05:18:23;18.10;46.00
67820;DHT22;54618;52.018;5.576;2023-01-19T05:20:48;18.10;46.00
67820;DHT22;54618;52.018;5.576;2023-01-19T05:23:14;18.10;45.90
67820;DHT22;54618;52.018;5.576;2023-01-19T05:25:41;18.10;46.00
67820;DHT22;54618;52.018;5.576;2023-01-19T05:28:07;18.10;45.90
67820;DHT22;54618;52.018;5.576;2023-01-19T05:30:32;18.10;45.90
67820;DHT22;54618;52.018;5.576;2023-01-19T05:32:58;18.10;45.90
67820;DHT22;54618;52.018;5.576;2023-01-19T05:35:24;18.10;46.00
67820;DHT22;54618;52.018;5.576;2023-01-19T05:37:49;18.10;46.00
67820;DHT22;54618;52.018;5.576;2023-01-19T05:40:15;18.20;46.50
67820;DHT22;54618;52.018;5.576;2023-01-19T05:42:40;18.40;47.10
67820;DHT22;54618;52.018;5.576;2023-01-19T05:45:06;18.60;47.60
67820;DHT22;54618;52.018;5.576;2023-01-19T05:47:32;18.70;47.90
67820;DHT22;54618;52.018;5.576;2023-01-19T05:49:58;18.90;48.30
67820;DHT22;54618;52.018;5.576;2023-01-19T05:52:23;19.20;48.40
67820;DHT22;54618;52.018;5.576;2023-01-19T05:54:50;19.40;48.50
67820;DHT22;54618;52.018;5.576;2023-01-19T05:57:16;19.60;48.40
67820;DHT22;54618;52.018;5.576;2023-01-19T05:59:42;19.70;48.20
67820;DHT22;54618;52.018;5.576;2023-01-19T06:02:07;20.00;49.00
67820;DHT22;54618;52.018;5.576;2023-01-19T06:04:33;20.20;49.10
67820;DHT22;54618;52.018;5.576;2023-01-19T06:06:59;20.30;48.80
67820;DHT22;54618;52.018;5.576;2023-01-19T06:09:24;20.40;48.70
67820;DHT22;54618;52.018;5.576;2023-01-19T06:11:50;20.50;49.70
67820;DHT22;54618;52.018;5.576;2023-01-19T06:14:18;20.60;49.30
67820;DHT22;54618;52.018;5.576;2023-01-19T06:16:44;20.70;49.30
67820;DHT22;54618;52.018;5.576;2023-01-19T06:19:09;20.70;48.90
67820;DHT22;54618;52.018;5.576;2023-01-19T06:21:35;20.50;48.70
67820;DHT22;54618;52.018;5.576;2023-01-19T06:24:01;20.40;48.70
67820;DHT22;54618;52.018;5.576;2023-01-19T06:26:27;20.20;48.60
67820;DHT22;54618;52.018;5.576;2023-01-19T06:28:53;20.10;48.80
67820;DHT22;54618;52.018;5.576;2023-01-19T06:31:19;20.20;48.00
67820;DHT22;54618;52.018;5.576;2023-01-19T06:33:44;20.60;47.10
67820;DHT22;54618;52.018;5.576;2023-01-19T06:36:10;20.80;46.80
67820;DHT22;54618;52.018;5.576;2023-01-19T06:38:36;20.90;46.40
67820;DHT22;54618;52.018;5.576;2023-01-19T06:41:01;21.00;45.70
67820;DHT22;54618;52.018;5.576;2023-01-19T06:43:28;21.20;45.40
67820;DHT22;54618;52.018;5.576;2023-01-19T06:45:53;21.30;45.00
67820;DHT22;54618;52.018;5.576;2023-01-19T06:48:20;21.50;44.70
67820;DHT22;54618;52.018;5.576;2023-01-19T06:50:47;21.50;44.40
67820;DHT22;54618;52.018;5.576;2023-01-19T06:53:13;21.60;44.20
67820;DHT22;54618;52.018;5.576;2023-01-19T06:55:41;21.60;43.80
67820;DHT22;54618;52.018;5.576;2023-01-19T06:58:07;21.60;44.30
67820;DHT22;54618;52.018;5.576;2023-01-19T07:00:33;21.70;43.60
67820;DHT22;54618;52.018;5.576;2023-01-19T07:02:58;21.70;43.50
67820;DHT22;54618;52.018;5.576;2023-01-19T07:05:24;21.70;43.30
67820;DHT22;54618;52.018;5.576;2023-01-19T07:07:54;21.70;43.20
67820;DHT22;54618;52.018;5.576;2023-01-19T07:10:20;21.70;42.90
67820;DHT22;54618;52.018;5.576;2023-01-19T07:12:46;21.80;43.00
67820;DHT22;54618;52.018;5.576;2023-01-19T07:15:13;21.80;42.80
67820;DHT22;54618;52.018;5.576;2023-01-19T07:17:39;21.70;42.70
67820;DHT22;54618;52.018;5.576;2023-01-19T07:20:08;21.70;42.80
67820;DHT22;54618;52.018;5.576;2023-01-19T07:22:36;21.70;42.80
67820;DHT22;54618;52.018;5.576;2023-01-19T07:25:01;21.70;42.70
67820;DHT22;54618;52.018;5.576;2023-01-19T07:27:27;21.50;42.90
67820;DHT22;54618;52.018;5.576;2023-01-19T07:29:53;21.20;43.20
67820;DHT22;54618;52.018;5.576;2023-01-19T07:32:18;20.90;43.50
67820;DHT22;54618;52.018;5.576;2023-01-19T07:34:44;20.50;43.80
67820;DHT22;54618;52.018;5.576;2023-01-19T07:37:09;20.20;44.20
67820;DHT22;54618;52.018;5.576;2023-01-19T07:39:35;19.90;44.50
67820;DHT22;54618;52.018;5.576;2023-01-19T07:42:01;19.90;44.50
67820;DHT22;54618;52.018;5.576;2023-01-19T07:44:27;20.20;44.20
67820;DHT22;54618;52.018;5.576;2023-01-19T07:46:53;20.50;43.80
67820;DHT22;54618;52.018;5.576;2023-01-19T07:49:18;20.70;43.40
67820;DHT22;54618;52.018;5.576;2023-01-19T07:51:45;21.00;43.10
67820;DHT22;54618;52.018;5.576;2023-01-19T07:54:10;21.10;42.80
67820;DHT22;54618;52.018;5.576;2023-01-19T07:56:36;21.20;42.60
67820;DHT22;54618;52.018;5.576;2023-01-19T07:59:02;21.30;42.50
67820;DHT22;54618;52.018;5.576;2023-01-19T08:01:27;21.40;42.40
67820;DHT22;54618;52.018;5.576;2023-01-19T08:03:54;21.50;42.30
67820;DHT22;54618;52.018;5.576;2023-01-19T08:06:26;21.50;42.30
67820;DHT22;54618;52.018;5.576;2023-01-19T08:08:54;21.60;42.20
67820;DHT22;54618;52.018;5.576;2023-01-19T08:11:19;21.50;42.30
67820;DHT22;54618;52.018;5.576;2023-01-19T08:13:45;21.50;42.20
67820;DHT22;54618;52.018;5.576;2023-01-19T08:16:11;21.60;42.20
67820;DHT22;54618;52.018;5.576;2023-01-19T08:18:36;21.60;42.20
67820;DHT22;54618;52.018;5.576;2023-01-19T08:21:02;21.60;42.20
67820;DHT22;54618;52.018;5.576;2023-01-19T08:23:27;21.60;42.30
67820;DHT22;54618;52.018;5.576;2023-01-19T08:25:53;21.60;42.30
67820;DHT22;54618;52.018;5.576;2023-01-19T08:28:19;21.60;42.40
67820;DHT22;54618;52.018;5.576;2023-01-19T08:30:45;21.60;42.40
67820;DHT22;54618;52.018;5.576;2023-01-19T08:33:18;21.50;42.30
67820;DHT22;54618;52.018;5.576;2023-01-19T08:35:47;21.30;42.50
67820;DHT22;54618;52.018;5.576;2023-01-19T08:38:14;21.00;42.70
67820;DHT22;54618;52.018;5.576;2023-01-19T08:40:40;20.70;43.20
67820;DHT22;54618;52.018;5.576;2023-01-19T08:43:10;20.40;43.80
67820;DHT22;54618;52.018;5.576;2023-01-19T08:45:37;20.40;44.20
67820;DHT22;54618;52.018;5.576;2023-01-19T08:48:05;20.60;44.60
67820;DHT22;54618;52.018;5.576;2023-01-19T08:50:32;20.80;43.90
67820;DHT22;54618;52.018;5.576;2023-01-19T08:53:00;21.00;43.60
67820;DHT22;54618;52.018;5.576;2023-01-19T08:55:26;21.20;43.50
67820;DHT22;54618;52.018;5.576;2023-01-19T08:57:53;21.30;43.30
67820;DHT22;54618;52.018;5.576;2023-01-19T09:00:21;21.40;43.30
67820;DHT22;54618;52.018;5.576;2023-01-19T09:02:47;21.50;43.30
67820;DHT22;54618;52.018;5.576;2023-01-19T09:05:12;21.60;43.20
67820;DHT22;54618;52.018;5.576;2023-01-19T09:07:38;21.70;43.20
67820;DHT22;54618;52.018;5.576;2023-01-19T09:10:04;21.70;43.30
67820;DHT22;54618;52.018;5.576;2023-01-19T09:12:30;21.70;43.30
67820;DHT22;54618;52.018;5.576;2023-01-19T09:14:56;21.70;43.20
67820;DHT22;54618;52.018;5.576;2023-01-19T09:17:22;21.80;43.30
67820;DHT22;54618;52.018;5.576;2023-01-19T09:19:47;21.80;43.30
67820;DHT22;54618;52.018;5.576;2023-01-19T09:22:13;21.90;43.20
67820;DHT22;54618;52.018;5.576;2023-01-19T09:24:38;21.90;43.20
67820;DHT22;54618;52.018;5.576;2023-01-19T09:27:04;21.90;43.20
67820;DHT22;54618;52.018;5.576;2023-01-19T09:29:29;22.00;43.80
67820;DHT22;54618;52.018;5.576;2023-01-19T09:31:55;22.00;43.20
67820;DHT22;54618;52.018;5.576;2023-01-19T09:34:22;22.00;43.20
67820;DHT22;54618;52.018;5.576;2023-01-19T09:36:50;22.00;43.20
67820;DHT22;54618;52.018;5.576;2023-01-19T09:39:16;22.00;43.30
67820;DHT22;54618;52.018;5.576;2023-01-19T09:41:46;22.00;43.20
67820;DHT22;54618;52.018;5.576;2023-01-19T09:44:19;22.00;43.30
67820;DHT22;54618;52.018;5.576;2023-01-19T09:46:48;22.00;43.20
67820;DHT22;54618;52.018;5.576;2023-01-19T09:51:52;22.00;43.20
67820;DHT22;54618;52.018;5.576;2023-01-19T09:54:28;22.00;43.30
67820;DHT22;54618;52.018;5.576;2023-01-19T09:56:55;22.00;43.30
67820;DHT22;54618;52.018;5.576;2023-01-19T09:59:22;22.00;43.30
67820;DHT22;54618;52.018;5.576;2023-01-19T10:02:18;22.00;43.30
67820;DHT22;54618;52.018;5.576;2023-01-19T10:05:03;22.10;43.30
67820;DHT22;54618;52.018;5.576;2023-01-19T10:07:41;22.20;43.30
67820;DHT22;54618;52.018;5.576;2023-01-19T10:10:28;22.20;43.20
67820;DHT22;54618;52.018;5.576;2023-01-19T10:13:38;22.20;43.20
67820;DHT22;54618;52.018;5.576;2023-01-19T10:19:52;22.30;43.30
67820;DHT22;54618;52.018;5.576;2023-01-19T10:22:19;22.30;43.20
67820;DHT22;54618;52.018;5.576;2023-01-19T10:24:49;22.30;43.20
67820;DHT22;54618;52.018;5.576;2023-01-19T10:27:19;22.30;43.20
67820;DHT22;54618;52.018;5.576;2023-01-19T10:29:46;22.30;43.20
67820;DHT22;54618;52.018;5.576;2023-01-19T10:32:17;22.30;43.20
67820;DHT22;54618;52.018;5.576;2023-01-19T10:34:46;22.30;43.20
67820;DHT22;54618;52.018;5.576;2023-01-19T10:42:36;22.40;43.00
67820;DHT22;54618;52.018;5.576;2023-01-19T10:45:08;22.50;42.90
67820;DHT22;54618;52.018;5.576;2023-01-19T10:47:39;22.50;43.10
67820;DHT22;54618;52.018;5.576;2023-01-19T10:50:28;22.60;43.10
67820;DHT22;54618;52.018;5.576;2023-01-19T10:53:02;22.60;42.90
67820;DHT22;54618;52.018;5.576;2023-01-19T10:55:31;22.60;42.90
67820;DHT22;54618;52.018;5.576;2023-01-19T10:57:58;22.60;43.10
67820;DHT22;54618;52.018;5.576;2023-01-19T11:00:39;22.60;43.00
67820;DHT22;54618;52.018;5.576;2023-01-19T11:03:22;22.70;43.00
67820;DHT22;54618;52.018;5.576;2023-01-19T11:05:48;22.70;43.00
67820;DHT22;54618;52.018;5.576;2023-01-19T11:08:28;22.70;42.90
67820;DHT22;54618;52.018;5.576;2023-01-19T11:10:57;22.80;42.90
67820;DHT22;54618;52.018;5.576;2023-01-19T11:13:23;22.80;42.80
67820;DHT22;54618;52.018;5.576;2023-01-19T11:16:07;22.90;43.00
67820;DHT22;54618;52.018;5.576;2023-01-19T11:18:37;23.00;42.70
67820;DHT22;54618;52.018;5.576;2023-01-19T11:21:12;23.10;42.70
67820;DHT22;54618;52.018;5.576;2023-01-19T11:23:46;23.10;42.60
67820;DHT22;54618;52.018;5.576;2023-01-19T11:26:27;23.20;42.60
67820;DHT22;54618;52.018;5.576;2023-01-19T11:28:56;23.20;42.50
67820;DHT22;54618;52.018;5.576;2023-01-19T11:34:00;23.30;42.60
67820;DHT22;54618;52.018;5.576;2023-01-19T11:36:28;23.30;43.20
67820;DHT22;54618;52.018;5.576;2023-01-19T11:38:56;23.30;42.50
67820;DHT22;54618;52.018;5.576;2023-01-19T11:43:54;23.30;42.50
67820;DHT22;54618;52.018;5.576;2023-01-19T11:46:23;23.40;42.50
67820;DHT22;54618;52.018;5.576;2023-01-19T11:49:01;23.40;42.50
67820;DHT22;54618;52.018;5.576;2023-01-19T11:51:33;23.40;42.60
67820;DHT22;54618;52.018;5.576;2023-01-19T11:54:04;23.40;42.50
67820;DHT22;54618;52.018;5.576;2023-01-19T11:56:33;23.40;42.60
67820;DHT22;54618;52.018;5.576;2023-01-19T11:59:01;23.40;42.60
67820;DHT22;54618;52.018;5.576;2023-01-19T12:01:33;23.40;42.60
67820;DHT22;54618;52.018;5.576;2023-01-19T12:04:18;23.40;42.60
67820;DHT22;54618;52.018;5.576;2023-01-19T12:06:48;23.40;42.50
67820;DHT22;54618;52.018;5.576;2023-01-19T12:09:24;23.40;42.60
67820;DHT22;54618;52.018;5.576;2023-01-19T12:12:29;23.40;42.70
67820;DHT22;54618;52.018;5.576;2023-01-19T12:15:01;23.40;42.70
67820;DHT22;54618;52.018;5.576;2023-01-19T12:17:32;23.40;42.90
67820;DHT22;54618;52.018;5.576;2023-01-19T12:20:16;23.30;43.00
67820;DHT22;54618;52.018;5.576;2023-01-19T12:22:49;23.30;43.10
67820;DHT22;54618;52.018;5.576;2023-01-19T12:25:22;23.20;43.20
67820;DHT22;54618;52.018;5.576;2023-01-19T12:27:50;23.20;43.20
67820;DHT22;54618;52.018;5.576;2023-01-19T12:30:22;23.20;43.20
67820;DHT22;54618;52.018;5.576;2023-01-19T12:32:49;23.10;43.20
67820;DHT22;54618;52.018;5.576;2023-01-19T12:41:37;23.00;43.20
67820;DHT22;54618;52.018;5.576;2023-01-19T12:46:48;23.30;43.00
67820;DHT22;54618;52.018;5.576;2023-01-19T12:49:27;23.60;42.80
67820;DHT22;54618;52.018;5.576;2023-01-19T12:52:10;23.80;42.50
67820;DHT22;54618;52.018;5.576;2023-01-19T12:54:41;24.00;42.20
67820;DHT22;54618;52.018;5.576;2023-01-19T12:57:16;24.10;42.00
67820;DHT22;54618;52.018;5.576;2023-01-19T12:59:43;24.30;42.60
67820;DHT22;54618;52.018;5.576;2023-01-19T13:10:51;24.50;41.60
67820;DHT22;54618;52.018;5.576;2023-01-19T13:13:31;24.50;41.50
67820;DHT22;54618;52.018;5.576;2023-01-19T13:18:47;24.60;41.20
67820;DHT22;54618;52.018;5.576;2023-01-19T13:21:38;24.60;41.50
67820;DHT22;54618;52.018;5.576;2023-01-19T13:24:07;24.60;41.50
67820;DHT22;54618;52.018;5.576;2023-01-19T13:26:38;24.50;41.50
67820;DHT22;54618;52.018;5.576;2023-01-19T13:29:29;24.60;41.50
67820;DHT22;54618;52.018;5.576;2023-01-19T13:31:59;24.60;41.30
67820;DHT22;54618;52.018;5.576;2023-01-19T13:34:40;24.40;41.40
67820;DHT22;54618;52.018;5.576;2023-01-19T13:37:20;24.10;41.50
67820;DHT22;54618;52.018;5.576;2023-01-19T13:39:49;23.80;41.80
67820;DHT22;54618;52.018;5.576;2023-01-19T13:42:38;23.60;42.00
67820;DHT22;54618;52.018;5.576;2023-01-19T13:45:32;23.40;42.00
67820;DHT22;54618;52.018;5.576;2023-01-19T13:48:00;23.30;42.10
67820;DHT22;54618;52.018;5.576;2023-01-19T13:50:29;23.20;42.10
67820;DHT22;54618;52.018;5.576;2023-01-19T13:52:56;23.20;42.20
67820;DHT22;54618;52.018;5.576;2023-01-19T13:55:25;23.20;42.10
67820;DHT22;54618;52.018;5.576;2023-01-19T13:57:51;23.20;42.00
67820;DHT22;54618;52.018;5.576;2023-01-19T14:00:26;23.30;41.80
67820;DHT22;54618;52.018;5.576;2023-01-19T14:05:38;23.60;41.60
67820;DHT22;54618;52.018;5.576;2023-01-19T14:10:46;23.70;41.40
67820;DHT22;54618;52.018;5.576;2023-01-19T14:13:19;23.70;41.30
67820;DHT22;54618;52.018;5.576;2023-01-19T14:15:47;23.70;41.20
67820;DHT22;54618;52.018;5.576;2023-01-19T14:21:06;23.80;41.90
67820;DHT22;54618;52.018;5.576;2023-01-19T14:26:01;23.70;41.10
67820;DHT22;54618;52.018;5.576;2023-01-19T14:28:42;23.70;41.10
67820;DHT22;54618;52.018;5.576;2023-01-19T14:31:23;23.80;41.10
67820;DHT22;54618;52.018;5.576;2023-01-19T14:33:51;23.80;41.00
67820;DHT22;54618;52.018;5.576;2023-01-19T14:36:32;23.80;41.00
67820;DHT22;54618;52.018;5.576;2023-01-19T14:38:59;23.80;41.00
67820;DHT22;54618;52.018;5.576;2023-01-19T14:41:38;23.80;41.00
67820;DHT22;54618;52.018;5.576;2023-01-19T14:44:16;23.80;41.20
67820;DHT22;54618;52.018;5.576;2023-01-19T14:46:45;23.80;40.90
67820;DHT22;54618;52.018;5.576;2023-01-19T14:49:20;23.80;40.90
67820;DHT22;54618;52.018;5.576;2023-01-19T14:51:49;23.80;40.90
67820;DHT22;54618;52.018;5.576;2023-01-19T14:54:18;23.80;40.90
67820;DHT22;54618;52.018;5.576;2023-01-19T14:56:52;23.70;40.90
67820;DHT22;54618;52.018;5.576;2023-01-19T14:59:18;23.80;40.90
67820;DHT22;54618;52.018;5.576;2023-01-19T15:01:43;23.70;40.90
67820;DHT22;54618;52.018;5.576;2023-01-19T15:04:09;23.70;40.90
67820;DHT22;54618;52.018;5.576;2023-01-19T15:06:39;23.40;41.00
67820;DHT22;54618;52.018;5.576;2023-01-19T15:09:07;23.00;41.20
67820;DHT22;54618;52.018;5.576;2023-01-19T15:11:34;22.70;41.70
67820;DHT22;54618;52.018;5.576;2023-01-19T15:14:00;22.50;41.90
67820;DHT22;54618;52.018;5.576;2023-01-19T15:16:28;22.30;42.00
67820;DHT22;54618;52.018;5.576;2023-01-19T15:18:54;22.30;42.30
67820;DHT22;54618;52.018;5.576;2023-01-19T15:21:21;22.40;42.10
67820;DHT22;54618;52.018;5.576;2023-01-19T15:23:53;22.60;41.90
67820;DHT22;54618;52.018;5.576;2023-01-19T15:26:21;22.80;41.70
67820;DHT22;54618;52.018;5.576;2023-01-19T15:28:48;22.90;41.50
67820;DHT22;54618;52.018;5.576;2023-01-19T15:31:16;23.10;41.40
67820;DHT22;54618;52.018;5.576;2023-01-19T15:33:41;23.10;41.20
67820;DHT22;54618;52.018;5.576;2023-01-19T15:36:15;23.10;41.20
67820;DHT22;54618;52.018;5.576;2023-01-19T15:38:41;23.20;41.20
67820;DHT22;54618;52.018;5.576;2023-01-19T15:41:16;23.20;41.10
67820;DHT22;54618;52.018;5.576;2023-01-19T15:43:43;23.20;41.00
67820;DHT22;54618;52.018;5.576;2023-01-19T15:46:10;23.20;41.00
67820;DHT22;54618;52.018;5.576;2023-01-19T15:48:37;23.20;41.00
67820;DHT22;54618;52.018;5.576;2023-01-19T15:51:03;23.30;41.00
67820;DHT22;54618;52.018;5.576;2023-01-19T15:53:29;23.30;40.90
67820;DHT22;54618;52.018;5.576;2023-01-19T15:55:55;23.40;41.00
67820;DHT22;54618;52.018;5.576;2023-01-19T15:58:21;23.40;40.90
67820;DHT22;54618;52.018;5.576;2023-01-19T16:00:55;23.40;40.90
67820;DHT22;54618;52.018;5.576;2023-01-19T16:03:21;23.30;40.90
67820;DHT22;54618;52.018;5.576;2023-01-19T16:05:46;23.40;41.00
67820;DHT22;54618;52.018;5.576;2023-01-19T16:08:12;23.40;40.90
67820;DHT22;54618;52.018;5.576;2023-01-19T16:10:39;23.40;41.00
67820;DHT22;54618;52.018;5.576;2023-01-19T16:13:06;23.40;41.00
67820;DHT22;54618;52.018;5.576;2023-01-19T16:15:36;23.40;41.20
67820;DHT22;54618;52.018;5.576;2023-01-19T16:18:03;23.40;41.00
67820;DHT22;54618;52.018;5.576;2023-01-19T16:20:30;23.00;41.20
67820;DHT22;54618;52.018;5.576;2023-01-19T16:22:55;22.80;41.60
67820;DHT22;54618;52.018;5.576;2023-01-19T16:25:21;22.70;41.90
67820;DHT22;54618;52.018;5.576;2023-01-19T16:27:48;22.60;41.90
67820;DHT22;54618;52.018;5.576;2023-01-19T16:30:14;22.30;41.90
67820;DHT22;54618;52.018;5.576;2023-01-19T16:32:41;22.00;42.20
67820;DHT22;54618;52.018;5.576;2023-01-19T16:35:07;21.70;42.40
67820;DHT22;54618;52.018;5.576;2023-01-19T16:37:32;21.50;42.80
67820;DHT22;54618;52.018;5.576;2023-01-19T16:39:58;21.40;43.10
67820;DHT22;54618;52.018;5.576;2023-01-19T16:42:24;21.20;43.30
67820;DHT22;54618;52.018;5.576;2023-01-19T16:44:49;21.10;43.50
67820;DHT22;54618;52.018;5.576;2023-01-19T16:47:15;21.10;43.90